KILM

Wilmington International Airport

Wilmington, North Carolina, USA
METAR KILM 231953Z 26007KT 10SM CLR 23/12 A3010 RMK AO2 SLP193 T02330117
Observed Flight Rules
Oct-23 @ 19:53 UTC (38 minutes ago) Visual Flight Rules
Wind Visibility Clouds
260° at 7 knots 10 miles
  • Clear skies
Temperatures Readings
Current 23°C / 73°F
Dewpoint 12°C / 54°F
Humidity 50%
Altimeter 30.1" Hg
Pressure 1019.3 hPa
Elevation 9
METAR KILM 231953Z 26007KT 10SM CLR 23/12 A3010 RMK AO2 SLP193 T02330117
Observed Flight Rules
Oct-23 @ 19:53 UTC
(38 minutes ago)
VFR
Wind Visibility
260° at 7 knots 10 miles
Clouds
  • Clear skies
Temperature Dewpoint
23°C / 73°F 12°C / 54°F
Humidity Altimeter Pressure
50% 30.1" Hg 1019.3 hPa